sensor_id;sensor_type;location;lat;lon;timestamp;P1;durP1;ratioP1;P2;durP2;ratioP2
54502;SDS011;40411;50.090;21.954;2022-10-16T00:00:37;19.70;;;10.88;;
54502;SDS011;40411;50.090;21.954;2022-10-16T00:03:25;20.77;;;10.40;;
54502;SDS011;40411;50.090;21.954;2022-10-16T00:05:51;21.77;;;12.10;;
54502;SDS011;40411;50.090;21.954;2022-10-16T00:08:17;19.25;;;11.05;;
54502;SDS011;40411;50.090;21.954;2022-10-16T00:10:42;20.75;;;10.55;;
54502;SDS011;40411;50.090;21.954;2022-10-16T00:13:08;22.75;;;12.05;;
54502;SDS011;40411;50.090;21.954;2022-10-16T00:15:35;21.73;;;11.02;;
54502;SDS011;40411;50.090;21.954;2022-10-16T00:18:03;17.35;;;10.25;;
54502;SDS011;40411;50.090;21.954;2022-10-16T00:20:29;21.00;;;11.40;;
54502;SDS011;40411;50.090;21.954;2022-10-16T00:22:56;17.02;;;10.82;;
54502;SDS011;40411;50.090;21.954;2022-10-16T00:25:22;25.45;;;11.55;;
54502;SDS011;40411;50.090;21.954;2022-10-16T00:27:48;26.58;;;11.07;;
54502;SDS011;40411;50.090;21.954;2022-10-16T00:30:14;20.08;;;11.48;;
54502;SDS011;40411;50.090;21.954;2022-10-16T00:32:40;24.60;;;10.60;;
54502;SDS011;40411;50.090;21.954;2022-10-16T00:35:06;18.70;;;9.65;;
54502;SDS011;40411;50.090;21.954;2022-10-16T00:37:32;19.95;;;10.13;;
54502;SDS011;40411;50.090;21.954;2022-10-16T00:39:57;20.25;;;10.93;;
54502;SDS011;40411;50.090;21.954;2022-10-16T00:42:23;25.45;;;11.65;;
54502;SDS011;40411;50.090;21.954;2022-10-16T00:44:50;20.48;;;9.98;;
54502;SDS011;40411;50.090;21.954;2022-10-16T00:47:24;18.73;;;10.45;;
54502;SDS011;40411;50.090;21.954;2022-10-16T00:49:53;19.40;;;10.30;;
54502;SDS011;40411;50.090;21.954;2022-10-16T00:52:25;19.27;;;10.90;;
54502;SDS011;40411;50.090;21.954;2022-10-16T00:54:51;20.50;;;11.00;;
54502;SDS011;40411;50.090;21.954;2022-10-16T00:57:19;20.88;;;10.70;;
54502;SDS011;40411;50.090;21.954;2022-10-16T00:59:45;22.98;;;11.15;;
54502;SDS011;40411;50.090;21.954;2022-10-16T01:02:13;21.15;;;10.60;;
54502;SDS011;40411;50.090;21.954;2022-10-16T01:04:41;18.38;;;10.00;;
54502;SDS011;40411;50.090;21.954;2022-10-16T01:10:10;21.83;;;10.90;;
54502;SDS011;40411;50.090;21.954;2022-10-16T01:13:10;20.52;;;10.77;;
54502;SDS011;40411;50.090;21.954;2022-10-16T01:15:41;23.00;;;10.27;;
54502;SDS011;40411;50.090;21.954;2022-10-16T01:18:10;19.50;;;10.15;;
54502;SDS011;40411;50.090;21.954;2022-10-16T01:21:10;21.25;;;10.60;;
54502;SDS011;40411;50.090;21.954;2022-10-16T01:24:00;19.98;;;9.85;;
54502;SDS011;40411;50.090;21.954;2022-10-16T01:26:47;19.00;;;10.00;;
54502;SDS011;40411;50.090;21.954;2022-10-16T01:29:36;23.73;;;10.70;;
54502;SDS011;40411;50.090;21.954;2022-10-16T01:32:17;21.30;;;11.60;;
54502;SDS011;40411;50.090;21.954;2022-10-16T01:35:32;18.88;;;10.40;;
54502;SDS011;40411;50.090;21.954;2022-10-16T01:40:11;18.52;;;10.73;;
54502;SDS011;40411;50.090;21.954;2022-10-16T01:42:41;21.92;;;10.95;;
54502;SDS011;40411;50.090;21.954;2022-10-16T01:45:11;22.60;;;11.05;;
54502;SDS011;40411;50.090;21.954;2022-10-16T01:47:40;18.77;;;9.80;;
54502;SDS011;40411;50.090;21.954;2022-10-16T01:50:07;17.67;;;10.13;;
54502;SDS011;40411;50.090;21.954;2022-10-16T01:52:38;25.90;;;11.25;;
54502;SDS011;40411;50.090;21.954;2022-10-16T01:57:35;21.48;;;10.70;;
54502;SDS011;40411;50.090;21.954;2022-10-16T02:00:07;19.80;;;11.73;;
54502;SDS011;40411;50.090;21.954;2022-10-16T02:02:39;21.08;;;11.27;;
54502;SDS011;40411;50.090;21.954;2022-10-16T02:05:16;19.17;;;10.27;;
54502;SDS011;40411;50.090;21.954;2022-10-16T02:07:48;18.10;;;10.50;;
54502;SDS011;40411;50.090;21.954;2022-10-16T02:10:15;24.05;;;12.00;;
54502;SDS011;40411;50.090;21.954;2022-10-16T02:12:42;20.83;;;10.45;;
54502;SDS011;40411;50.090;21.954;2022-10-16T02:15:13;28.23;;;12.48;;
54502;SDS011;40411;50.090;21.954;2022-10-16T02:17:39;19.75;;;10.57;;
54502;SDS011;40411;50.090;21.954;2022-10-16T02:20:05;21.42;;;10.80;;
54502;SDS011;40411;50.090;21.954;2022-10-16T02:22:35;28.95;;;13.35;;
54502;SDS011;40411;50.090;21.954;2022-10-16T02:25:06;20.90;;;11.23;;
54502;SDS011;40411;50.090;21.954;2022-10-16T02:28:10;23.02;;;11.70;;
54502;SDS011;40411;50.090;21.954;2022-10-16T02:30:50;25.05;;;10.80;;
54502;SDS011;40411;50.090;21.954;2022-10-16T02:33:22;19.20;;;11.10;;
54502;SDS011;40411;50.090;21.954;2022-10-16T02:35:50;22.80;;;11.07;;
54502;SDS011;40411;50.090;21.954;2022-10-16T02:38:17;20.13;;;10.68;;
54502;SDS011;40411;50.090;21.954;2022-10-16T02:40:44;32.03;;;10.57;;
54502;SDS011;40411;50.090;21.954;2022-10-16T02:43:10;18.58;;;10.52;;
54502;SDS011;40411;50.090;21.954;2022-10-16T02:45:37;20.27;;;10.30;;
54502;SDS011;40411;50.090;21.954;2022-10-16T02:48:03;21.30;;;10.77;;
54502;SDS011;40411;50.090;21.954;2022-10-16T02:50:29;20.00;;;11.10;;
54502;SDS011;40411;50.090;21.954;2022-10-16T02:52:55;22.27;;;9.90;;
54502;SDS011;40411;50.090;21.954;2022-10-16T02:55:21;18.35;;;9.02;;
54502;SDS011;40411;50.090;21.954;2022-10-16T02:57:47;15.50;;;9.82;;
54502;SDS011;40411;50.090;21.954;2022-10-16T03:00:14;18.98;;;10.40;;
54502;SDS011;40411;50.090;21.954;2022-10-16T03:02:41;21.45;;;10.55;;
54502;SDS011;40411;50.090;21.954;2022-10-16T03:05:07;20.55;;;10.48;;
54502;SDS011;40411;50.090;21.954;2022-10-16T03:07:34;19.02;;;10.48;;
54502;SDS011;40411;50.090;21.954;2022-10-16T03:09:59;18.98;;;9.75;;
54502;SDS011;40411;50.090;21.954;2022-10-16T03:12:26;20.08;;;10.10;;
54502;SDS011;40411;50.090;21.954;2022-10-16T03:14:52;17.85;;;10.20;;
54502;SDS011;40411;50.090;21.954;2022-10-16T03:17:18;16.50;;;9.77;;
54502;SDS011;40411;50.090;21.954;2022-10-16T03:19:44;15.38;;;8.77;;
54502;SDS011;40411;50.090;21.954;2022-10-16T03:22:10;15.18;;;8.65;;
54502;SDS011;40411;50.090;21.954;2022-10-16T03:24:36;15.90;;;9.32;;
54502;SDS011;40411;50.090;21.954;2022-10-16T03:27:02;16.08;;;8.70;;
54502;SDS011;40411;50.090;21.954;2022-10-16T03:29:28;16.27;;;9.52;;
54502;SDS011;40411;50.090;21.954;2022-10-16T03:31:55;15.70;;;7.82;;
54502;SDS011;40411;50.090;21.954;2022-10-16T03:34:21;22.23;;;9.02;;
54502;SDS011;40411;50.090;21.954;2022-10-16T03:36:47;14.95;;;8.57;;
54502;SDS011;40411;50.090;21.954;2022-10-16T03:39:13;28.85;;;10.10;;
54502;SDS011;40411;50.090;21.954;2022-10-16T03:41:39;14.88;;;8.45;;
54502;SDS011;40411;50.090;21.954;2022-10-16T03:44:05;19.35;;;8.90;;
54502;SDS011;40411;50.090;21.954;2022-10-16T03:46:31;16.42;;;8.20;;
54502;SDS011;40411;50.090;21.954;2022-10-16T03:48:57;16.52;;;8.73;;
54502;SDS011;40411;50.090;21.954;2022-10-16T03:51:23;14.60;;;8.40;;
54502;SDS011;40411;50.090;21.954;2022-10-16T03:53:49;14.43;;;7.30;;
54502;SDS011;40411;50.090;21.954;2022-10-16T03:56:15;16.92;;;8.95;;
54502;SDS011;40411;50.090;21.954;2022-10-16T03:58:41;14.55;;;8.35;;
54502;SDS011;40411;50.090;21.954;2022-10-16T04:01:06;14.75;;;8.68;;
54502;SDS011;40411;50.090;21.954;2022-10-16T04:03:32;15.48;;;8.25;;
54502;SDS011;40411;50.090;21.954;2022-10-16T04:05:58;18.52;;;8.43;;
54502;SDS011;40411;50.090;21.954;2022-10-16T04:08:24;16.63;;;8.32;;
54502;SDS011;40411;50.090;21.954;2022-10-16T04:10:50;15.15;;;8.13;;
54502;SDS011;40411;50.090;21.954;2022-10-16T04:13:16;16.08;;;8.38;;
54502;SDS011;40411;50.090;21.954;2022-10-16T04:15:42;14.07;;;8.73;;
54502;SDS011;40411;50.090;21.954;2022-10-16T04:18:09;12.68;;;7.68;;
54502;SDS011;40411;50.090;21.954;2022-10-16T04:20:36;17.15;;;7.75;;
54502;SDS011;40411;50.090;21.954;2022-10-16T04:23:02;18.42;;;8.63;;
54502;SDS011;40411;50.090;21.954;2022-10-16T04:25:28;15.35;;;8.10;;
54502;SDS011;40411;50.090;21.954;2022-10-16T04:27:54;19.15;;;8.15;;
54502;SDS011;40411;50.090;21.954;2022-10-16T04:30:21;18.50;;;7.88;;
54502;SDS011;40411;50.090;21.954;2022-10-16T04:32:48;18.23;;;8.77;;
54502;SDS011;40411;50.090;21.954;2022-10-16T04:35:15;15.85;;;8.15;;
54502;SDS011;40411;50.090;21.954;2022-10-16T04:37:42;23.88;;;7.28;;
54502;SDS011;40411;50.090;21.954;2022-10-16T04:40:08;17.63;;;8.10;;
54502;SDS011;40411;50.090;21.954;2022-10-16T04:42:34;15.77;;;8.50;;
54502;SDS011;40411;50.090;21.954;2022-10-16T04:45:00;14.23;;;7.90;;
54502;SDS011;40411;50.090;21.954;2022-10-16T04:47:26;15.40;;;8.35;;
54502;SDS011;40411;50.090;21.954;2022-10-16T04:49:52;14.00;;;8.00;;
54502;SDS011;40411;50.090;21.954;2022-10-16T04:52:17;13.50;;;8.02;;
54502;SDS011;40411;50.090;21.954;2022-10-16T04:54:44;13.40;;;7.53;;
54502;SDS011;40411;50.090;21.954;2022-10-16T04:57:10;15.57;;;8.52;;
54502;SDS011;40411;50.090;21.954;2022-10-16T04:59:36;22.75;;;8.68;;
54502;SDS011;40411;50.090;21.954;2022-10-16T05:02:03;17.77;;;8.88;;
54502;SDS011;40411;50.090;21.954;2022-10-16T05:04:28;18.92;;;8.88;;
54502;SDS011;40411;50.090;21.954;2022-10-16T05:06:54;15.73;;;8.85;;
54502;SDS011;40411;50.090;21.954;2022-10-16T05:09:20;17.88;;;8.40;;
54502;SDS011;40411;50.090;21.954;2022-10-16T05:11:46;15.57;;;8.95;;
54502;SDS011;40411;50.090;21.954;2022-10-16T05:14:12;14.98;;;8.93;;
54502;SDS011;40411;50.090;21.954;2022-10-16T05:16:38;18.25;;;8.57;;
54502;SDS011;40411;50.090;21.954;2022-10-16T05:19:04;14.77;;;8.63;;
54502;SDS011;40411;50.090;21.954;2022-10-16T05:21:30;15.13;;;9.07;;
54502;SDS011;40411;50.090;21.954;2022-10-16T05:23:56;16.13;;;8.95;;
54502;SDS011;40411;50.090;21.954;2022-10-16T05:26:21;20.30;;;10.10;;
54502;SDS011;40411;50.090;21.954;2022-10-16T05:28:47;17.73;;;8.20;;
54502;SDS011;40411;50.090;21.954;2022-10-16T05:31:15;18.48;;;8.65;;
54502;SDS011;40411;50.090;21.954;2022-10-16T05:33:41;15.25;;;8.02;;
54502;SDS011;40411;50.090;21.954;2022-10-16T05:36:08;15.43;;;8.60;;
54502;SDS011;40411;50.090;21.954;2022-10-16T05:38:35;20.08;;;8.43;;
54502;SDS011;40411;50.090;21.954;2022-10-16T05:41:02;16.50;;;8.48;;
54502;SDS011;40411;50.090;21.954;2022-10-16T05:43:29;15.15;;;7.97;;
54502;SDS011;40411;50.090;21.954;2022-10-16T05:45:59;19.38;;;8.38;;
54502;SDS011;40411;50.090;21.954;2022-10-16T05:48:29;15.38;;;8.32;;
54502;SDS011;40411;50.090;21.954;2022-10-16T05:50:56;15.55;;;8.00;;
54502;SDS011;40411;50.090;21.954;2022-10-16T05:53:29;16.10;;;7.88;;
54502;SDS011;40411;50.090;21.954;2022-10-16T05:55:57;15.82;;;7.18;;
54502;SDS011;40411;50.090;21.954;2022-10-16T05:58:23;18.67;;;8.35;;
54502;SDS011;40411;50.090;21.954;2022-10-16T06:00:54;17.92;;;7.68;;
54502;SDS011;40411;50.090;21.954;2022-10-16T06:03:23;12.90;;;7.03;;
54502;SDS011;40411;50.090;21.954;2022-10-16T06:05:50;16.85;;;7.63;;
54502;SDS011;40411;50.090;21.954;2022-10-16T06:08:16;11.90;;;7.10;;
54502;SDS011;40411;50.090;21.954;2022-10-16T06:10:43;13.70;;;7.32;;
54502;SDS011;40411;50.090;21.954;2022-10-16T06:13:10;14.32;;;7.40;;
54502;SDS011;40411;50.090;21.954;2022-10-16T06:15:37;13.13;;;7.07;;
54502;SDS011;40411;50.090;21.954;2022-10-16T06:18:04;13.43;;;7.22;;
54502;SDS011;40411;50.090;21.954;2022-10-16T06:20:31;16.10;;;7.43;;
54502;SDS011;40411;50.090;21.954;2022-10-16T06:22:57;16.35;;;7.40;;
54502;SDS011;40411;50.090;21.954;2022-10-16T06:25:23;18.35;;;7.65;;
54502;SDS011;40411;50.090;21.954;2022-10-16T06:27:48;12.57;;;6.75;;
54502;SDS011;40411;50.090;21.954;2022-10-16T06:30:14;15.35;;;6.55;;
54502;SDS011;40411;50.090;21.954;2022-10-16T06:32:40;12.43;;;6.68;;
54502;SDS011;40411;50.090;21.954;2022-10-16T06:35:06;15.52;;;8.18;;
54502;SDS011;40411;50.090;21.954;2022-10-16T06:37:32;15.00;;;8.75;;
54502;SDS011;40411;50.090;21.954;2022-10-16T06:39:58;32.38;;;18.15;;
54502;SDS011;40411;50.090;21.954;2022-10-16T06:42:25;16.30;;;8.00;;
54502;SDS011;40411;50.090;21.954;2022-10-16T06:44:51;17.38;;;7.70;;
54502;SDS011;40411;50.090;21.954;2022-10-16T06:47:17;14.90;;;7.20;;
54502;SDS011;40411;50.090;21.954;2022-10-16T06:49:43;19.10;;;7.47;;
54502;SDS011;40411;50.090;21.954;2022-10-16T06:52:09;17.55;;;7.60;;
54502;SDS011;40411;50.090;21.954;2022-10-16T06:54:35;17.27;;;7.07;;
54502;SDS011;40411;50.090;21.954;2022-10-16T06:57:00;16.75;;;6.40;;
54502;SDS011;40411;50.090;21.954;2022-10-16T06:59:27;15.23;;;7.65;;
54502;SDS011;40411;50.090;21.954;2022-10-16T07:01:53;12.73;;;6.68;;
54502;SDS011;40411;50.090;21.954;2022-10-16T07:04:18;21.33;;;7.65;;
54502;SDS011;40411;50.090;21.954;2022-10-16T07:06:44;13.35;;;7.13;;
54502;SDS011;40411;50.090;21.954;2022-10-16T07:09:10;11.50;;;6.20;;
54502;SDS011;40411;50.090;21.954;2022-10-16T07:11:37;13.10;;;7.05;;
54502;SDS011;40411;50.090;21.954;2022-10-16T07:14:09;15.35;;;6.60;;
54502;SDS011;40411;50.090;21.954;2022-10-16T07:16:40;16.73;;;7.15;;
54502;SDS011;40411;50.090;21.954;2022-10-16T07:19:06;13.75;;;6.30;;
54502;SDS011;40411;50.090;21.954;2022-10-16T07:21:33;20.77;;;6.00;;
54502;SDS011;40411;50.090;21.954;2022-10-16T07:24:01;11.75;;;7.00;;
54502;SDS011;40411;50.090;21.954;2022-10-16T07:26:28;10.88;;;5.45;;
54502;SDS011;40411;50.090;21.954;2022-10-16T07:28:55;15.98;;;6.97;;
54502;SDS011;40411;50.090;21.954;2022-10-16T07:31:22;10.95;;;5.88;;
54502;SDS011;40411;50.090;21.954;2022-10-16T07:33:49;11.32;;;6.53;;
54502;SDS011;40411;50.090;21.954;2022-10-16T07:36:16;15.15;;;7.57;;
54502;SDS011;40411;50.090;21.954;2022-10-16T07:38:43;16.33;;;6.63;;
54502;SDS011;40411;50.090;21.954;2022-10-16T07:41:12;16.45;;;7.30;;
54502;SDS011;40411;50.090;21.954;2022-10-16T07:43:49;21.45;;;7.93;;
54502;SDS011;40411;50.090;21.954;2022-10-16T07:46:16;14.85;;;6.15;;
54502;SDS011;40411;50.090;21.954;2022-10-16T07:48:43;13.18;;;6.57;;
54502;SDS011;40411;50.090;21.954;2022-10-16T07:51:13;15.35;;;7.68;;
54502;SDS011;40411;50.090;21.954;2022-10-16T07:53:41;14.60;;;6.97;;
54502;SDS011;40411;50.090;21.954;2022-10-16T07:56:07;10.95;;;6.32;;
54502;SDS011;40411;50.090;21.954;2022-10-16T07:58:34;14.30;;;7.15;;
54502;SDS011;40411;50.090;21.954;2022-10-16T08:01:03;9.85;;;5.43;;
54502;SDS011;40411;50.090;21.954;2022-10-16T08:03:31;18.50;;;7.07;;
54502;SDS011;40411;50.090;21.954;2022-10-16T08:05:57;18.70;;;7.47;;
54502;SDS011;40411;50.090;21.954;2022-10-16T08:08:23;15.00;;;6.05;;
54502;SDS011;40411;50.090;21.954;2022-10-16T08:10:49;30.33;;;9.90;;
54502;SDS011;40411;50.090;21.954;2022-10-16T08:13:15;16.60;;;6.10;;
54502;SDS011;40411;50.090;21.954;2022-10-16T08:15:41;11.65;;;6.28;;
54502;SDS011;40411;50.090;21.954;2022-10-16T08:18:09;12.13;;;5.53;;
54502;SDS011;40411;50.090;21.954;2022-10-16T08:20:35;10.20;;;5.68;;
54502;SDS011;40411;50.090;21.954;2022-10-16T08:23:01;14.55;;;5.95;;
54502;SDS011;40411;50.090;21.954;2022-10-16T08:25:28;10.30;;;5.57;;
54502;SDS011;40411;50.090;21.954;2022-10-16T08:27:54;11.15;;;5.05;;
54502;SDS011;40411;50.090;21.954;2022-10-16T08:30:20;11.18;;;5.28;;
54502;SDS011;40411;50.090;21.954;2022-10-16T08:32:47;13.63;;;5.40;;
54502;SDS011;40411;50.090;21.954;2022-10-16T08:35:14;9.70;;;5.43;;
54502;SDS011;40411;50.090;21.954;2022-10-16T08:37:40;10.23;;;5.68;;
54502;SDS011;40411;50.090;21.954;2022-10-16T08:40:07;11.32;;;5.82;;
54502;SDS011;40411;50.090;21.954;2022-10-16T08:48:28;12.60;;;4.72;;
54502;SDS011;40411;50.090;21.954;2022-10-16T08:51:00;9.93;;;5.00;;
54502;SDS011;40411;50.090;21.954;2022-10-16T08:53:51;11.40;;;5.50;;
54502;SDS011;40411;50.090;21.954;2022-10-16T08:56:25;11.32;;;5.13;;
54502;SDS011;40411;50.090;21.954;2022-10-16T08:58:52;15.18;;;5.53;;
54502;SDS011;40411;50.090;21.954;2022-10-16T09:01:19;12.18;;;5.47;;
54502;SDS011;40411;50.090;21.954;2022-10-16T09:03:52;10.15;;;5.55;;
54502;SDS011;40411;50.090;21.954;2022-10-16T09:17:13;10.15;;;5.63;;
54502;SDS011;40411;50.090;21.954;2022-10-16T09:22:47;10.27;;;5.35;;
54502;SDS011;40411;50.090;21.954;2022-10-16T09:25:15;12.98;;;5.40;;
54502;SDS011;40411;50.090;21.954;2022-10-16T09:27:44;9.73;;;5.32;;
54502;SDS011;40411;50.090;21.954;2022-10-16T09:30:14;11.30;;;4.97;;
54502;SDS011;40411;50.090;21.954;2022-10-16T09:32:41;12.00;;;5.45;;
54502;SDS011;40411;50.090;21.954;2022-10-16T09:35:14;10.45;;;4.93;;
54502;SDS011;40411;50.090;21.954;2022-10-16T09:37:43;10.10;;;6.07;;
54502;SDS011;40411;50.090;21.954;2022-10-16T09:40:24;13.43;;;5.30;;
54502;SDS011;40411;50.090;21.954;2022-10-16T09:45:28;9.45;;;5.18;;
54502;SDS011;40411;50.090;21.954;2022-10-16T09:47:54;12.50;;;5.70;;
54502;SDS011;40411;50.090;21.954;2022-10-16T09:55:48;10.65;;;5.55;;
54502;SDS011;40411;50.090;21.954;2022-10-16T09:58:20;10.20;;;5.30;;
54502;SDS011;40411;50.090;21.954;2022-10-16T10:00:49;13.38;;;5.75;;
54502;SDS011;40411;50.090;21.954;2022-10-16T10:03:23;11.95;;;5.60;;
54502;SDS011;40411;50.090;21.954;2022-10-16T10:06:00;9.17;;;5.30;;
54502;SDS011;40411;50.090;21.954;2022-10-16T10:08:32;13.80;;;5.32;;
54502;SDS011;40411;50.090;21.954;2022-10-16T10:10:58;10.38;;;5.32;;
54502;SDS011;40411;50.090;21.954;2022-10-16T10:13:24;13.32;;;5.13;;
54502;SDS011;40411;50.090;21.954;2022-10-16T10:15:52;11.55;;;6.20;;
54502;SDS011;40411;50.090;21.954;2022-10-16T10:18:20;11.85;;;5.97;;
54502;SDS011;40411;50.090;21.954;2022-10-16T10:20:58;12.88;;;5.63;;
54502;SDS011;40411;50.090;21.954;2022-10-16T10:23:28;9.13;;;5.32;;
54502;SDS011;40411;50.090;21.954;2022-10-16T10:31:17;8.23;;;5.05;;
54502;SDS011;40411;50.090;21.954;2022-10-16T10:40:11;12.00;;;4.90;;
54502;SDS011;40411;50.090;21.954;2022-10-16T10:45:52;8.00;;;4.78;;
54502;SDS011;40411;50.090;21.954;2022-10-16T10:51:18;15.82;;;5.05;;
54502;SDS011;40411;50.090;21.954;2022-10-16T10:59:43;8.13;;;4.78;;
54502;SDS011;40411;50.090;21.954;2022-10-16T11:02:13;10.57;;;5.40;;
54502;SDS011;40411;50.090;21.954;2022-10-16T11:04:57;8.65;;;4.95;;
54502;SDS011;40411;50.090;21.954;2022-10-16T11:10:09;11.48;;;5.28;;
54502;SDS011;40411;50.090;21.954;2022-10-16T11:12:44;11.75;;;5.00;;
54502;SDS011;40411;50.090;21.954;2022-10-16T11:15:17;10.07;;;5.03;;
54502;SDS011;40411;50.090;21.954;2022-10-16T11:18:30;7.75;;;4.53;;
54502;SDS011;40411;50.090;21.954;2022-10-16T11:20:45;10.93;;;4.70;;
54502;SDS011;40411;50.090;21.954;2022-10-16T11:23:18;8.35;;;4.93;;
54502;SDS011;40411;50.090;21.954;2022-10-16T11:25:50;10.18;;;4.75;;
54502;SDS011;40411;50.090;21.954;2022-10-16T11:28:38;8.82;;;4.22;;
54502;SDS011;40411;50.090;21.954;2022-10-16T11:31:16;9.63;;;4.38;;
54502;SDS011;40411;50.090;21.954;2022-10-16T11:33:49;8.85;;;4.15;;
54502;SDS011;40411;50.090;21.954;2022-10-16T11:36:58;12.40;;;5.10;;
54502;SDS011;40411;50.090;21.954;2022-10-16T11:39:23;16.17;;;5.50;;
54502;SDS011;40411;50.090;21.954;2022-10-16T11:50:17;10.05;;;5.03;;
54502;SDS011;40411;50.090;21.954;2022-10-16T11:55:36;14.55;;;5.13;;
54502;SDS011;40411;50.090;21.954;2022-10-16T11:58:05;8.88;;;4.90;;
54502;SDS011;40411;50.090;21.954;2022-10-16T12:00:51;15.00;;;5.18;;
54502;SDS011;40411;50.090;21.954;2022-10-16T12:08:49;9.60;;;5.05;;
54502;SDS011;40411;50.090;21.954;2022-10-16T12:16:50;10.85;;;5.25;;
54502;SDS011;40411;50.090;21.954;2022-10-16T12:19:36;10.00;;;5.10;;
54502;SDS011;40411;50.090;21.954;2022-10-16T12:22:02;12.05;;;4.93;;
54502;SDS011;40411;50.090;21.954;2022-10-16T12:24:39;13.43;;;5.00;;
54502;SDS011;40411;50.090;21.954;2022-10-16T12:29:59;9.45;;;4.72;;
54502;SDS011;40411;50.090;21.954;2022-10-16T12:32:33;8.45;;;4.53;;
54502;SDS011;40411;50.090;21.954;2022-10-16T12:34:59;8.32;;;4.70;;
54502;SDS011;40411;50.090;21.954;2022-10-16T12:37:28;11.75;;;4.88;;
54502;SDS011;40411;50.090;21.954;2022-10-16T12:39:55;11.00;;;4.78;;
54502;SDS011;40411;50.090;21.954;2022-10-16T12:44:52;10.82;;;4.95;;
54502;SDS011;40411;50.090;21.954;2022-10-16T12:47:19;10.93;;;5.00;;
54502;SDS011;40411;50.090;21.954;2022-10-16T12:49:54;10.45;;;5.13;;
54502;SDS011;40411;50.090;21.954;2022-10-16T12:52:38;8.45;;;4.78;;
54502;SDS011;40411;50.090;21.954;2022-10-16T12:55:05;10.00;;;5.03;;
54502;SDS011;40411;50.090;21.954;2022-10-16T13:00:45;8.93;;;4.75;;
54502;SDS011;40411;50.090;21.954;2022-10-16T13:03:34;7.57;;;4.43;;
54502;SDS011;40411;50.090;21.954;2022-10-16T13:09:45;7.80;;;4.72;;
54502;SDS011;40411;50.090;21.954;2022-10-16T13:28:46;11.40;;;4.85;;
54502;SDS011;40411;50.090;21.954;2022-10-16T13:31:14;9.75;;;4.68;;
54502;SDS011;40411;50.090;21.954;2022-10-16T13:33:46;9.68;;;4.30;;
54502;SDS011;40411;50.090;21.954;2022-10-16T13:36:19;11.57;;;4.47;;
54502;SDS011;40411;50.090;21.954;2022-10-16T13:39:15;14.38;;;4.88;;
54502;SDS011;40411;50.090;21.954;2022-10-16T13:41:44;8.02;;;4.57;;
54502;SDS011;40411;50.090;21.954;2022-10-16T13:44:14;12.98;;;4.45;;
54502;SDS011;40411;50.090;21.954;2022-10-16T13:46:45;9.70;;;4.63;;
54502;SDS011;40411;50.090;21.954;2022-10-16T13:49:15;8.43;;;4.68;;
54502;SDS011;40411;50.090;21.954;2022-10-16T13:51:53;15.20;;;4.57;;
54502;SDS011;40411;50.090;21.954;2022-10-16T13:54:23;9.50;;;4.57;;
54502;SDS011;40411;50.090;21.954;2022-10-16T13:56:50;9.18;;;5.05;;
54502;SDS011;40411;50.090;21.954;2022-10-16T14:01:48;9.15;;;4.60;;
54502;SDS011;40411;50.090;21.954;2022-10-16T14:04:17;11.18;;;4.97;;
54502;SDS011;40411;50.090;21.954;2022-10-16T14:06:44;11.25;;;4.63;;
54502;SDS011;40411;50.090;21.954;2022-10-16T14:09:28;9.70;;;4.40;;
54502;SDS011;40411;50.090;21.954;2022-10-16T14:12:02;9.32;;;4.35;;
54502;SDS011;40411;50.090;21.954;2022-10-16T14:14:43;8.05;;;4.53;;
54502;SDS011;40411;50.090;21.954;2022-10-16T14:17:14;10.48;;;4.85;;
54502;SDS011;40411;50.090;21.954;2022-10-16T14:19:44;10.27;;;4.70;;
54502;SDS011;40411;50.090;21.954;2022-10-16T14:22:21;16.48;;;4.68;;
54502;SDS011;40411;50.090;21.954;2022-10-16T14:24:57;11.23;;;4.47;;
54502;SDS011;40411;50.090;21.954;2022-10-16T14:27:33;8.20;;;4.53;;
54502;SDS011;40411;50.090;21.954;2022-10-16T14:32:33;11.40;;;6.03;;
54502;SDS011;40411;50.090;21.954;2022-10-16T14:34:59;10.68;;;5.20;;
54502;SDS011;40411;50.090;21.954;2022-10-16T14:37:28;8.07;;;4.18;;
54502;SDS011;40411;50.090;21.954;2022-10-16T14:39:55;8.43;;;4.70;;
54502;SDS011;40411;50.090;21.954;2022-10-16T14:42:22;12.05;;;5.28;;
54502;SDS011;40411;50.090;21.954;2022-10-16T14:44:50;10.95;;;4.63;;
54502;SDS011;40411;50.090;21.954;2022-10-16T14:47:19;9.07;;;5.13;;
54502;SDS011;40411;50.090;21.954;2022-10-16T14:49:51;9.63;;;4.95;;
54502;SDS011;40411;50.090;21.954;2022-10-16T14:52:18;18.65;;;5.10;;
54502;SDS011;40411;50.090;21.954;2022-10-16T14:54:47;10.68;;;4.68;;
54502;SDS011;40411;50.090;21.954;2022-10-16T14:57:22;11.05;;;5.43;;
54502;SDS011;40411;50.090;21.954;2022-10-16T14:59:49;13.52;;;4.93;;
54502;SDS011;40411;50.090;21.954;2022-10-16T15:04:44;9.60;;;4.60;;
54502;SDS011;40411;50.090;21.954;2022-10-16T15:07:10;13.07;;;5.10;;
54502;SDS011;40411;50.090;21.954;2022-10-16T15:09:36;14.25;;;5.43;;
54502;SDS011;40411;50.090;21.954;2022-10-16T15:12:02;10.25;;;5.00;;
54502;SDS011;40411;50.090;21.954;2022-10-16T15:14:27;13.23;;;4.88;;
54502;SDS011;40411;50.090;21.954;2022-10-16T15:16:53;10.55;;;5.45;;
54502;SDS011;40411;50.090;21.954;2022-10-16T15:19:19;11.45;;;5.53;;
54502;SDS011;40411;50.090;21.954;2022-10-16T15:21:45;10.23;;;5.28;;
54502;SDS011;40411;50.090;21.954;2022-10-16T15:24:12;14.27;;;5.30;;
54502;SDS011;40411;50.090;21.954;2022-10-16T15:26:39;11.02;;;5.35;;
54502;SDS011;40411;50.090;21.954;2022-10-16T15:29:04;17.20;;;10.60;;
54502;SDS011;40411;50.090;21.954;2022-10-16T15:31:31;19.42;;;9.23;;
54502;SDS011;40411;50.090;21.954;2022-10-16T15:33:57;16.05;;;7.35;;
54502;SDS011;40411;50.090;21.954;2022-10-16T15:36:32;17.08;;;8.07;;
54502;SDS011;40411;50.090;21.954;2022-10-16T15:41:41;15.32;;;7.10;;
54502;SDS011;40411;50.090;21.954;2022-10-16T15:44:08;18.30;;;6.43;;
54502;SDS011;40411;50.090;21.954;2022-10-16T15:46:34;14.18;;;6.03;;
54502;SDS011;40411;50.090;21.954;2022-10-16T15:49:01;12.57;;;5.47;;
54502;SDS011;40411;50.090;21.954;2022-10-16T15:51:27;10.43;;;6.10;;
54502;SDS011;40411;50.090;21.954;2022-10-16T15:53:58;16.88;;;8.80;;
54502;SDS011;40411;50.090;21.954;2022-10-16T15:56:27;12.52;;;6.50;;
54502;SDS011;40411;50.090;21.954;2022-10-16T15:58:54;10.45;;;5.40;;
54502;SDS011;40411;50.090;21.954;2022-10-16T16:01:20;13.27;;;6.80;;
54502;SDS011;40411;50.090;21.954;2022-10-16T16:03:46;27.27;;;9.65;;
54502;SDS011;40411;50.090;21.954;2022-10-16T16:06:13;14.38;;;6.25;;
54502;SDS011;40411;50.090;21.954;2022-10-16T16:08:39;14.50;;;6.35;;
54502;SDS011;40411;50.090;21.954;2022-10-16T16:11:14;12.57;;;6.07;;
54502;SDS011;40411;50.090;21.954;2022-10-16T16:13:42;14.50;;;6.03;;
54502;SDS011;40411;50.090;21.954;2022-10-16T16:16:09;14.10;;;5.80;;
54502;SDS011;40411;50.090;21.954;2022-10-16T16:18:36;18.80;;;5.88;;
54502;SDS011;40411;50.090;21.954;2022-10-16T16:21:03;10.85;;;6.40;;
54502;SDS011;40411;50.090;21.954;2022-10-16T16:23:29;19.05;;;6.18;;
54502;SDS011;40411;50.090;21.954;2022-10-16T16:28:37;13.80;;;5.88;;
54502;SDS011;40411;50.090;21.954;2022-10-16T16:31:04;12.50;;;5.90;;
54502;SDS011;40411;50.090;21.954;2022-10-16T16:33:30;20.20;;;6.60;;
54502;SDS011;40411;50.090;21.954;2022-10-16T16:36:00;76.57;;;35.80;;
54502;SDS011;40411;50.090;21.954;2022-10-16T16:38:28;24.73;;;14.63;;